sensor_id;sensor_type;location;lat;lon;timestamp;P1;durP1;ratioP1;P2;durP2;ratioP2
76865;SDS011;66647;52.124;5.416;2024-02-15T00:02:23;10.63;;;2.67;;
76865;SDS011;66647;52.124;5.416;2024-02-15T00:04:49;13.75;;;3.08;;
76865;SDS011;66647;52.124;5.416;2024-02-15T00:07:16;9.98;;;4.15;;
76865;SDS011;66647;52.124;5.416;2024-02-15T00:09:44;10.95;;;4.63;;
76865;SDS011;66647;52.124;5.416;2024-02-15T00:12:10;9.93;;;3.97;;
76865;SDS011;66647;52.124;5.416;2024-02-15T00:14:37;8.48;;;3.60;;
76865;SDS011;66647;52.124;5.416;2024-02-15T00:17:04;12.32;;;3.67;;
76865;SDS011;66647;52.124;5.416;2024-02-15T00:19:31;15.50;;;4.05;;
76865;SDS011;66647;52.124;5.416;2024-02-15T00:21:58;13.90;;;4.97;;
76865;SDS011;66647;52.124;5.416;2024-02-15T00:24:25;11.57;;;2.63;;
76865;SDS011;66647;52.124;5.416;2024-02-15T00:26:51;12.05;;;4.28;;
76865;SDS011;66647;52.124;5.416;2024-02-15T00:29:18;14.35;;;2.50;;
76865;SDS011;66647;52.124;5.416;2024-02-15T00:31:44;11.60;;;3.63;;
76865;SDS011;66647;52.124;5.416;2024-02-15T00:34:12;9.98;;;3.55;;
76865;SDS011;66647;52.124;5.416;2024-02-15T00:36:41;12.32;;;2.47;;
76865;SDS011;66647;52.124;5.416;2024-02-15T00:39:09;9.80;;;2.58;;
76865;SDS011;66647;52.124;5.416;2024-02-15T00:41:38;14.18;;;3.60;;
76865;SDS011;66647;52.124;5.416;2024-02-15T00:44:11;10.13;;;3.97;;
76865;SDS011;66647;52.124;5.416;2024-02-15T00:46:38;10.18;;;3.92;;
76865;SDS011;66647;52.124;5.416;2024-02-15T00:49:04;11.20;;;3.25;;
76865;SDS011;66647;52.124;5.416;2024-02-15T00:51:35;14.07;;;3.70;;
76865;SDS011;66647;52.124;5.416;2024-02-15T00:54:02;10.93;;;4.05;;
76865;SDS011;66647;52.124;5.416;2024-02-15T00:56:29;11.35;;;3.22;;
76865;SDS011;66647;52.124;5.416;2024-02-15T00:59:00;9.07;;;2.28;;
76865;SDS011;66647;52.124;5.416;2024-02-15T01:01:35;8.45;;;3.05;;
76865;SDS011;66647;52.124;5.416;2024-02-15T01:04:04;8.85;;;3.22;;
76865;SDS011;66647;52.124;5.416;2024-02-15T01:06:32;9.52;;;3.33;;
76865;SDS011;66647;52.124;5.416;2024-02-15T01:08:59;8.45;;;3.28;;
76865;SDS011;66647;52.124;5.416;2024-02-15T01:11:30;10.90;;;2.53;;
76865;SDS011;66647;52.124;5.416;2024-02-15T01:14:01;8.57;;;2.58;;
76865;SDS011;66647;52.124;5.416;2024-02-15T01:16:27;15.30;;;3.53;;
76865;SDS011;66647;52.124;5.416;2024-02-15T01:18:55;10.98;;;3.60;;
76865;SDS011;66647;52.124;5.416;2024-02-15T01:21:21;9.82;;;2.15;;
76865;SDS011;66647;52.124;5.416;2024-02-15T01:23:51;10.88;;;3.42;;
76865;SDS011;66647;52.124;5.416;2024-02-15T01:26:20;9.45;;;2.47;;
76865;SDS011;66647;52.124;5.416;2024-02-15T01:28:46;9.18;;;3.00;;
76865;SDS011;66647;52.124;5.416;2024-02-15T01:31:13;13.27;;;4.25;;
76865;SDS011;66647;52.124;5.416;2024-02-15T01:33:44;10.48;;;4.60;;
76865;SDS011;66647;52.124;5.416;2024-02-15T01:36:15;14.20;;;4.50;;
76865;SDS011;66647;52.124;5.416;2024-02-15T01:38:42;13.70;;;4.82;;
76865;SDS011;66647;52.124;5.416;2024-02-15T01:41:09;15.90;;;5.78;;
76865;SDS011;66647;52.124;5.416;2024-02-15T01:43:36;15.80;;;5.35;;
76865;SDS011;66647;52.124;5.416;2024-02-15T01:46:09;22.20;;;6.97;;
76865;SDS011;66647;52.124;5.416;2024-02-15T01:48:37;14.10;;;6.50;;
76865;SDS011;66647;52.124;5.416;2024-02-15T01:51:07;18.52;;;7.32;;
76865;SDS011;66647;52.124;5.416;2024-02-15T01:53:34;16.98;;;7.63;;
76865;SDS011;66647;52.124;5.416;2024-02-15T01:56:01;18.30;;;7.72;;
76865;SDS011;66647;52.124;5.416;2024-02-15T01:58:28;15.38;;;7.53;;
76865;SDS011;66647;52.124;5.416;2024-02-15T02:00:58;17.92;;;5.93;;
76865;SDS011;66647;52.124;5.416;2024-02-15T02:03:26;14.38;;;5.88;;
76865;SDS011;66647;52.124;5.416;2024-02-15T02:05:53;15.95;;;5.68;;
76865;SDS011;66647;52.124;5.416;2024-02-15T02:08:21;16.35;;;4.90;;
76865;SDS011;66647;52.124;5.416;2024-02-15T02:10:50;14.20;;;6.28;;
76865;SDS011;66647;52.124;5.416;2024-02-15T02:13:19;14.05;;;7.32;;
76865;SDS011;66647;52.124;5.416;2024-02-15T02:15:46;15.98;;;6.68;;
76865;SDS011;66647;52.124;5.416;2024-02-15T02:18:13;15.48;;;6.95;;
76865;SDS011;66647;52.124;5.416;2024-02-15T02:20:42;18.52;;;6.63;;
76865;SDS011;66647;52.124;5.416;2024-02-15T02:23:15;13.85;;;4.93;;
76865;SDS011;66647;52.124;5.416;2024-02-15T02:25:44;17.45;;;6.07;;
76865;SDS011;66647;52.124;5.416;2024-02-15T02:28:15;18.33;;;6.72;;
76865;SDS011;66647;52.124;5.416;2024-02-15T02:30:43;17.75;;;4.90;;
76865;SDS011;66647;52.124;5.416;2024-02-15T02:33:12;17.08;;;6.75;;
76865;SDS011;66647;52.124;5.416;2024-02-15T02:35:46;15.93;;;4.93;;
76865;SDS011;66647;52.124;5.416;2024-02-15T02:38:14;16.90;;;5.38;;
76865;SDS011;66647;52.124;5.416;2024-02-15T02:40:41;13.00;;;5.07;;
76865;SDS011;66647;52.124;5.416;2024-02-15T02:43:08;23.60;;;6.57;;
76865;SDS011;66647;52.124;5.416;2024-02-15T02:45:35;14.95;;;4.95;;
76865;SDS011;66647;52.124;5.416;2024-02-15T02:48:01;19.02;;;4.72;;
76865;SDS011;66647;52.124;5.416;2024-02-15T02:50:28;11.93;;;4.30;;
76865;SDS011;66647;52.124;5.416;2024-02-15T02:52:55;11.43;;;5.60;;
76865;SDS011;66647;52.124;5.416;2024-02-15T02:55:22;15.82;;;4.35;;
76865;SDS011;66647;52.124;5.416;2024-02-15T02:57:49;12.10;;;4.32;;
76865;SDS011;66647;52.124;5.416;2024-02-15T03:00:15;15.40;;;5.88;;
76865;SDS011;66647;52.124;5.416;2024-02-15T03:02:43;17.13;;;5.97;;
76865;SDS011;66647;52.124;5.416;2024-02-15T03:05:10;14.13;;;5.65;;
76865;SDS011;66647;52.124;5.416;2024-02-15T03:07:38;13.85;;;4.95;;
76865;SDS011;66647;52.124;5.416;2024-02-15T03:10:08;15.73;;;5.72;;
76865;SDS011;66647;52.124;5.416;2024-02-15T03:12:41;16.77;;;4.90;;
76865;SDS011;66647;52.124;5.416;2024-02-15T03:15:13;16.00;;;4.75;;
76865;SDS011;66647;52.124;5.416;2024-02-15T03:17:40;10.18;;;5.07;;
76865;SDS011;66647;52.124;5.416;2024-02-15T03:20:08;12.32;;;4.82;;
76865;SDS011;66647;52.124;5.416;2024-02-15T03:22:51;13.18;;;3.58;;
76865;SDS011;66647;52.124;5.416;2024-02-15T03:25:24;8.80;;;4.18;;
76865;SDS011;66647;52.124;5.416;2024-02-15T03:27:52;13.35;;;4.38;;
76865;SDS011;66647;52.124;5.416;2024-02-15T03:30:21;8.05;;;3.00;;
76865;SDS011;66647;52.124;5.416;2024-02-15T03:32:50;12.07;;;3.83;;
76865;SDS011;66647;52.124;5.416;2024-02-15T03:35:20;10.65;;;4.65;;
76865;SDS011;66647;52.124;5.416;2024-02-15T03:37:49;12.65;;;5.15;;
76865;SDS011;66647;52.124;5.416;2024-02-15T03:40:19;16.05;;;5.45;;
76865;SDS011;66647;52.124;5.416;2024-02-15T03:42:46;12.95;;;3.22;;
76865;SDS011;66647;52.124;5.416;2024-02-15T03:45:13;12.77;;;3.03;;
76865;SDS011;66647;52.124;5.416;2024-02-15T03:47:40;9.00;;;4.05;;
76865;SDS011;66647;52.124;5.416;2024-02-15T03:50:07;13.20;;;4.90;;
76865;SDS011;66647;52.124;5.416;2024-02-15T03:52:38;11.80;;;4.25;;
76865;SDS011;66647;52.124;5.416;2024-02-15T03:55:05;15.27;;;2.90;;
76865;SDS011;66647;52.124;5.416;2024-02-15T03:57:33;12.65;;;4.57;;
76865;SDS011;66647;52.124;5.416;2024-02-15T04:00:00;13.73;;;4.25;;
76865;SDS011;66647;52.124;5.416;2024-02-15T04:02:34;9.75;;;2.60;;
76865;SDS011;66647;52.124;5.416;2024-02-15T04:05:02;10.25;;;4.00;;
76865;SDS011;66647;52.124;5.416;2024-02-15T04:07:31;14.10;;;4.47;;
76865;SDS011;66647;52.124;5.416;2024-02-15T04:09:57;8.70;;;2.55;;
76865;SDS011;66647;52.124;5.416;2024-02-15T04:12:25;11.65;;;4.35;;
76865;SDS011;66647;52.124;5.416;2024-02-15T04:14:53;12.00;;;4.03;;
76865;SDS011;66647;52.124;5.416;2024-02-15T04:17:21;13.07;;;4.82;;
76865;SDS011;66647;52.124;5.416;2024-02-15T04:19:48;11.40;;;1.90;;
76865;SDS011;66647;52.124;5.416;2024-02-15T04:22:17;16.83;;;4.63;;
76865;SDS011;66647;52.124;5.416;2024-02-15T04:24:43;12.90;;;3.63;;
76865;SDS011;66647;52.124;5.416;2024-02-15T04:27:11;11.50;;;3.75;;
76865;SDS011;66647;52.124;5.416;2024-02-15T04:29:40;10.77;;;4.03;;
76865;SDS011;66647;52.124;5.416;2024-02-15T04:32:08;8.68;;;2.05;;
76865;SDS011;66647;52.124;5.416;2024-02-15T04:34:38;15.55;;;3.60;;
76865;SDS011;66647;52.124;5.416;2024-02-15T04:37:06;8.30;;;1.67;;
76865;SDS011;66647;52.124;5.416;2024-02-15T04:39:35;11.48;;;1.95;;
76865;SDS011;66647;52.124;5.416;2024-02-15T04:42:05;9.30;;;2.08;;
76865;SDS011;66647;52.124;5.416;2024-02-15T04:44:34;10.18;;;3.33;;
76865;SDS011;66647;52.124;5.416;2024-02-15T04:47:07;13.90;;;2.13;;
76865;SDS011;66647;52.124;5.416;2024-02-15T04:49:35;9.23;;;3.22;;
76865;SDS011;66647;52.124;5.416;2024-02-15T04:52:04;15.40;;;3.38;;
76865;SDS011;66647;52.124;5.416;2024-02-15T04:54:32;8.65;;;2.58;;
76865;SDS011;66647;52.124;5.416;2024-02-15T04:56:59;12.48;;;3.47;;
76865;SDS011;66647;52.124;5.416;2024-02-15T04:59:27;10.57;;;3.13;;
76865;SDS011;66647;52.124;5.416;2024-02-15T05:01:55;14.73;;;2.30;;
76865;SDS011;66647;52.124;5.416;2024-02-15T05:04:25;12.63;;;2.90;;
76865;SDS011;66647;52.124;5.416;2024-02-15T05:06:52;14.60;;;3.78;;
76865;SDS011;66647;52.124;5.416;2024-02-15T05:09:19;9.25;;;3.15;;
76865;SDS011;66647;52.124;5.416;2024-02-15T05:11:46;12.48;;;2.25;;
76865;SDS011;66647;52.124;5.416;2024-02-15T05:14:14;13.27;;;1.73;;
76865;SDS011;66647;52.124;5.416;2024-02-15T05:16:45;9.27;;;3.50;;
76865;SDS011;66647;52.124;5.416;2024-02-15T05:19:14;6.32;;;3.15;;
76865;SDS011;66647;52.124;5.416;2024-02-15T05:21:45;13.30;;;4.05;;
76865;SDS011;66647;52.124;5.416;2024-02-15T05:24:13;8.68;;;3.90;;
76865;SDS011;66647;52.124;5.416;2024-02-15T05:26:41;9.93;;;1.83;;
76865;SDS011;66647;52.124;5.416;2024-02-15T05:29:10;13.25;;;3.25;;
76865;SDS011;66647;52.124;5.416;2024-02-15T05:31:37;12.00;;;3.63;;
76865;SDS011;66647;52.124;5.416;2024-02-15T05:34:05;12.50;;;2.13;;
76865;SDS011;66647;52.124;5.416;2024-02-15T05:36:34;8.70;;;4.05;;
76865;SDS011;66647;52.124;5.416;2024-02-15T05:39:01;11.27;;;2.53;;
76865;SDS011;66647;52.124;5.416;2024-02-15T05:41:29;6.20;;;2.47;;
76865;SDS011;66647;52.124;5.416;2024-02-15T05:43:56;25.30;;;15.00;;
76865;SDS011;66647;52.124;5.416;2024-02-15T05:46:24;14.50;;;4.85;;
76865;SDS011;66647;52.124;5.416;2024-02-15T05:48:50;10.45;;;4.40;;
76865;SDS011;66647;52.124;5.416;2024-02-15T05:51:21;9.60;;;4.07;;
76865;SDS011;66647;52.124;5.416;2024-02-15T05:53:48;12.65;;;4.70;;
76865;SDS011;66647;52.124;5.416;2024-02-15T05:56:16;11.38;;;4.07;;
76865;SDS011;66647;52.124;5.416;2024-02-15T05:58:43;12.20;;;4.85;;
76865;SDS011;66647;52.124;5.416;2024-02-15T06:01:10;14.70;;;5.22;;
76865;SDS011;66647;52.124;5.416;2024-02-15T06:03:39;15.27;;;3.90;;
76865;SDS011;66647;52.124;5.416;2024-02-15T06:06:08;8.45;;;5.70;;
76865;SDS011;66647;52.124;5.416;2024-02-15T06:08:35;11.27;;;4.35;;
76865;SDS011;66647;52.124;5.416;2024-02-15T06:11:03;12.68;;;4.15;;
76865;SDS011;66647;52.124;5.416;2024-02-15T06:13:31;11.05;;;6.93;;
76865;SDS011;66647;52.124;5.416;2024-02-15T06:15:58;9.55;;;5.72;;
76865;SDS011;66647;52.124;5.416;2024-02-15T06:18:25;12.05;;;4.45;;
76865;SDS011;66647;52.124;5.416;2024-02-15T06:21:00;6.10;;;2.53;;
76865;SDS011;66647;52.124;5.416;2024-02-15T06:23:28;10.50;;;4.82;;
76865;SDS011;66647;52.124;5.416;2024-02-15T06:25:55;10.10;;;3.75;;
76865;SDS011;66647;52.124;5.416;2024-02-15T06:28:25;12.02;;;4.63;;
76865;SDS011;66647;52.124;5.416;2024-02-15T06:31:10;11.32;;;2.17;;
76865;SDS011;66647;52.124;5.416;2024-02-15T06:33:56;9.50;;;3.80;;
76865;SDS011;66647;52.124;5.416;2024-02-15T06:36:55;7.80;;;3.50;;
76865;SDS011;66647;52.124;5.416;2024-02-15T06:39:41;8.40;;;4.47;;
76865;SDS011;66647;52.124;5.416;2024-02-15T06:42:13;8.45;;;4.15;;
76865;SDS011;66647;52.124;5.416;2024-02-15T06:44:50;9.27;;;2.40;;
76865;SDS011;66647;52.124;5.416;2024-02-15T06:47:17;9.27;;;2.83;;
76865;SDS011;66647;52.124;5.416;2024-02-15T06:49:45;10.38;;;4.22;;
76865;SDS011;66647;52.124;5.416;2024-02-15T06:52:13;7.43;;;4.70;;
76865;SDS011;66647;52.124;5.416;2024-02-15T06:54:40;9.65;;;4.57;;
76865;SDS011;66647;52.124;5.416;2024-02-15T06:57:07;16.67;;;3.60;;
76865;SDS011;66647;52.124;5.416;2024-02-15T06:59:34;10.70;;;3.10;;
76865;SDS011;66647;52.124;5.416;2024-02-15T07:02:02;11.30;;;4.28;;
76865;SDS011;66647;52.124;5.416;2024-02-15T07:04:31;7.55;;;4.50;;
76865;SDS011;66647;52.124;5.416;2024-02-15T07:06:59;12.07;;;2.88;;
76865;SDS011;66647;52.124;5.416;2024-02-15T07:09:26;11.13;;;3.15;;
76865;SDS011;66647;52.124;5.416;2024-02-15T07:11:54;8.73;;;3.08;;
76865;SDS011;66647;52.124;5.416;2024-02-15T07:14:21;9.60;;;4.28;;
76865;SDS011;66647;52.124;5.416;2024-02-15T07:16:57;9.70;;;4.35;;
76865;SDS011;66647;52.124;5.416;2024-02-15T07:19:25;9.75;;;3.85;;
76865;SDS011;66647;52.124;5.416;2024-02-15T07:21:55;7.63;;;3.90;;
76865;SDS011;66647;52.124;5.416;2024-02-15T07:24:23;7.03;;;3.00;;
76865;SDS011;66647;52.124;5.416;2024-02-15T07:26:53;6.88;;;3.55;;
76865;SDS011;66647;52.124;5.416;2024-02-15T07:29:22;6.93;;;4.15;;
76865;SDS011;66647;52.124;5.416;2024-02-15T07:31:51;8.95;;;4.15;;
76865;SDS011;66647;52.124;5.416;2024-02-15T07:34:18;9.10;;;5.28;;
76865;SDS011;66647;52.124;5.416;2024-02-15T07:39:55;10.60;;;3.60;;
76865;SDS011;66647;52.124;5.416;2024-02-15T07:42:22;7.95;;;3.15;;
76865;SDS011;66647;52.124;5.416;2024-02-15T07:44:51;5.20;;;2.67;;
76865;SDS011;66647;52.124;5.416;2024-02-15T07:47:21;10.48;;;3.42;;
76865;SDS011;66647;52.124;5.416;2024-02-15T07:49:50;5.07;;;2.60;;
76865;SDS011;66647;52.124;5.416;2024-02-15T07:52:19;5.68;;;1.30;;
76865;SDS011;66647;52.124;5.416;2024-02-15T07:58:28;4.22;;;2.20;;
76865;SDS011;66647;52.124;5.416;2024-02-15T08:01:01;5.07;;;0.95;;
76865;SDS011;66647;52.124;5.416;2024-02-15T08:18:40;3.08;;;0.70;;
76865;SDS011;66647;52.124;5.416;2024-02-15T08:21:12;6.82;;;0.95;;
76865;SDS011;66647;52.124;5.416;2024-02-15T08:24:03;3.53;;;0.75;;
76865;SDS011;66647;52.124;5.416;2024-02-15T08:26:33;5.45;;;0.73;;
76865;SDS011;66647;52.124;5.416;2024-02-15T08:29:14;5.03;;;1.70;;
76865;SDS011;66647;52.124;5.416;2024-02-15T08:42:11;1.92;;;0.28;;
76865;SDS011;66647;52.124;5.416;2024-02-15T08:45:26;7.43;;;2.13;;
76865;SDS011;66647;52.124;5.416;2024-02-15T08:49:03;1.75;;;0.22;;
76865;SDS011;66647;52.124;5.416;2024-02-15T09:09:21;2.72;;;1.00;;
76865;SDS011;66647;52.124;5.416;2024-02-15T09:12:00;2.88;;;0.20;;
76865;SDS011;66647;52.124;5.416;2024-02-15T09:21:04;2.28;;;0.93;;
76865;SDS011;66647;52.124;5.416;2024-02-15T09:23:31;3.83;;;0.35;;
76865;SDS011;66647;52.124;5.416;2024-02-15T09:25:59;2.45;;;0.35;;
76865;SDS011;66647;52.124;5.416;2024-02-15T09:28:25;3.88;;;1.55;;
76865;SDS011;66647;52.124;5.416;2024-02-15T09:30:53;3.42;;;0.82;;
76865;SDS011;66647;52.124;5.416;2024-02-15T09:33:26;3.25;;;1.83;;
76865;SDS011;66647;52.124;5.416;2024-02-15T09:35:53;2.30;;;0.20;;
76865;SDS011;66647;52.124;5.416;2024-02-15T09:38:22;3.28;;;0.55;;
76865;SDS011;66647;52.124;5.416;2024-02-15T09:40:48;3.42;;;1.30;;
76865;SDS011;66647;52.124;5.416;2024-02-15T09:43:22;6.55;;;1.20;;
76865;SDS011;66647;52.124;5.416;2024-02-15T09:45:52;6.47;;;0.63;;
76865;SDS011;66647;52.124;5.416;2024-02-15T09:48:19;2.92;;;0.95;;
76865;SDS011;66647;52.124;5.416;2024-02-15T09:50:49;5.47;;;1.20;;
76865;SDS011;66647;52.124;5.416;2024-02-15T09:53:31;4.57;;;1.27;;
76865;SDS011;66647;52.124;5.416;2024-02-15T09:55:59;5.68;;;1.92;;
76865;SDS011;66647;52.124;5.416;2024-02-15T09:58:30;4.85;;;1.05;;
76865;SDS011;66647;52.124;5.416;2024-02-15T10:07:54;4.90;;;0.40;;
76865;SDS011;66647;52.124;5.416;2024-02-15T10:18:04;6.32;;;1.20;;
76865;SDS011;66647;52.124;5.416;2024-02-15T10:21:05;4.50;;;0.30;;
76865;SDS011;66647;52.124;5.416;2024-02-15T10:27:13;7.95;;;0.90;;
76865;SDS011;66647;52.124;5.416;2024-02-15T10:29:39;7.30;;;0.52;;
76865;SDS011;66647;52.124;5.416;2024-02-15T10:32:08;4.97;;;0.52;;
76865;SDS011;66647;52.124;5.416;2024-02-15T10:34:43;4.85;;;1.05;;
76865;SDS011;66647;52.124;5.416;2024-02-15T10:37:11;4.30;;;1.55;;
76865;SDS011;66647;52.124;5.416;2024-02-15T10:39:39;3.75;;;1.98;;
76865;SDS011;66647;52.124;5.416;2024-02-15T10:42:07;4.30;;;1.45;;
76865;SDS011;66647;52.124;5.416;2024-02-15T10:44:37;5.53;;;0.57;;
76865;SDS011;66647;52.124;5.416;2024-02-15T10:47:07;5.18;;;0.77;;
76865;SDS011;66647;52.124;5.416;2024-02-15T10:49:35;6.22;;;2.08;;
76865;SDS011;66647;52.124;5.416;2024-02-15T10:52:03;7.65;;;1.63;;
76865;SDS011;66647;52.124;5.416;2024-02-15T10:57:10;9.05;;;1.25;;
76865;SDS011;66647;52.124;5.416;2024-02-15T10:59:55;5.43;;;1.40;;
76865;SDS011;66647;52.124;5.416;2024-02-15T11:11:13;6.72;;;2.17;;
76865;SDS011;66647;52.124;5.416;2024-02-15T11:13:41;6.15;;;2.03;;
76865;SDS011;66647;52.124;5.416;2024-02-15T11:16:18;6.80;;;2.80;;
76865;SDS011;66647;52.124;5.416;2024-02-15T11:22:09;6.45;;;2.15;;
76865;SDS011;66647;52.124;5.416;2024-02-15T11:24:45;4.60;;;0.85;;
76865;SDS011;66647;52.124;5.416;2024-02-15T11:27:35;9.27;;;1.15;;
76865;SDS011;66647;52.124;5.416;2024-02-15T11:30:05;7.93;;;1.80;;
76865;SDS011;66647;52.124;5.416;2024-02-15T11:32:46;5.78;;;2.13;;
76865;SDS011;66647;52.124;5.416;2024-02-15T11:35:17;12.75;;;3.15;;
76865;SDS011;66647;52.124;5.416;2024-02-15T11:37:53;10.55;;;1.17;;
76865;SDS011;66647;52.124;5.416;2024-02-15T11:43:50;9.18;;;2.50;;
76865;SDS011;66647;52.124;5.416;2024-02-15T11:46:30;10.82;;;1.92;;
76865;SDS011;66647;52.124;5.416;2024-02-15T11:48:59;7.82;;;1.48;;
76865;SDS011;66647;52.124;5.416;2024-02-15T11:51:27;10.50;;;2.10;;
76865;SDS011;66647;52.124;5.416;2024-02-15T11:54:09;7.53;;;3.00;;
76865;SDS011;66647;52.124;5.416;2024-02-15T11:56:55;8.10;;;2.75;;
76865;SDS011;66647;52.124;5.416;2024-02-15T11:59:42;10.52;;;2.55;;
76865;SDS011;66647;52.124;5.416;2024-02-15T12:02:31;6.78;;;3.08;;
76865;SDS011;66647;52.124;5.416;2024-02-15T12:05:17;6.45;;;2.63;;
76865;SDS011;66647;52.124;5.416;2024-02-15T12:08:06;5.38;;;1.13;;
76865;SDS011;66647;52.124;5.416;2024-02-15T12:11:00;9.93;;;2.53;;
76865;SDS011;66647;52.124;5.416;2024-02-15T12:13:51;7.80;;;1.17;;
76865;SDS011;66647;52.124;5.416;2024-02-15T12:16:37;6.07;;;3.17;;
76865;SDS011;66647;52.124;5.416;2024-02-15T12:19:22;7.68;;;3.13;;
76865;SDS011;66647;52.124;5.416;2024-02-15T12:21:50;9.88;;;3.15;;
76865;SDS011;66647;52.124;5.416;2024-02-15T12:24:18;6.47;;;2.13;;
76865;SDS011;66647;52.124;5.416;2024-02-15T12:26:48;7.82;;;2.70;;
76865;SDS011;66647;52.124;5.416;2024-02-15T12:29:17;5.55;;;3.20;;
76865;SDS011;66647;52.124;5.416;2024-02-15T12:31:44;7.43;;;3.63;;
76865;SDS011;66647;52.124;5.416;2024-02-15T12:34:10;6.90;;;3.60;;
76865;SDS011;66647;52.124;5.416;2024-02-15T12:36:41;6.93;;;1.55;;
76865;SDS011;66647;52.124;5.416;2024-02-15T12:39:09;5.40;;;2.65;;
76865;SDS011;66647;52.124;5.416;2024-02-15T12:41:39;7.38;;;2.78;;
76865;SDS011;66647;52.124;5.416;2024-02-15T12:44:11;7.93;;;3.03;;
76865;SDS011;66647;52.124;5.416;2024-02-15T12:47:04;12.38;;;2.80;;
76865;SDS011;66647;52.124;5.416;2024-02-15T12:49:33;8.02;;;2.53;;
76865;SDS011;66647;52.124;5.416;2024-02-15T12:52:44;5.95;;;2.60;;
76865;SDS011;66647;52.124;5.416;2024-02-15T12:55:06;6.95;;;3.03;;
76865;SDS011;66647;52.124;5.416;2024-02-15T12:57:34;5.82;;;2.33;;
76865;SDS011;66647;52.124;5.416;2024-02-15T13:00:02;8.02;;;2.40;;
76865;SDS011;66647;52.124;5.416;2024-02-15T13:02:37;6.20;;;2.08;;
76865;SDS011;66647;52.124;5.416;2024-02-15T13:05:05;7.35;;;1.00;;
76865;SDS011;66647;52.124;5.416;2024-02-15T13:07:35;6.68;;;2.58;;
76865;SDS011;66647;52.124;5.416;2024-02-15T13:10:05;10.23;;;1.80;;
76865;SDS011;66647;52.124;5.416;2024-02-15T13:13:01;5.53;;;1.30;;
76865;SDS011;66647;52.124;5.416;2024-02-15T13:15:30;3.92;;;1.52;;
76865;SDS011;66647;52.124;5.416;2024-02-15T13:18:01;5.47;;;1.05;;
76865;SDS011;66647;52.124;5.416;2024-02-15T13:20:31;8.23;;;2.00;;
76865;SDS011;66647;52.124;5.416;2024-02-15T13:22:59;5.60;;;0.43;;
76865;SDS011;66647;52.124;5.416;2024-02-15T13:25:29;4.25;;;1.55;;
76865;SDS011;66647;52.124;5.416;2024-02-15T13:27:58;7.15;;;1.73;;
76865;SDS011;66647;52.124;5.416;2024-02-15T13:30:31;5.65;;;1.13;;
76865;SDS011;66647;52.124;5.416;2024-02-15T13:32:58;4.32;;;1.40;;
76865;SDS011;66647;52.124;5.416;2024-02-15T13:35:28;4.40;;;1.75;;
76865;SDS011;66647;52.124;5.416;2024-02-15T13:37:55;5.82;;;1.02;;
76865;SDS011;66647;52.124;5.416;2024-02-15T13:40:25;6.35;;;1.63;;
76865;SDS011;66647;52.124;5.416;2024-02-15T13:42:57;4.47;;;1.23;;
76865;SDS011;66647;52.124;5.416;2024-02-15T13:45:29;3.25;;;0.32;;
76865;SDS011;66647;52.124;5.416;2024-02-15T13:48:04;4.20;;;1.30;;
76865;SDS011;66647;52.124;5.416;2024-02-15T13:51:44;6.40;;;1.15;;
76865;SDS011;66647;52.124;5.416;2024-02-15T13:54:10;4.10;;;1.40;;
76865;SDS011;66647;52.124;5.416;2024-02-15T13:56:40;3.22;;;1.65;;
76865;SDS011;66647;52.124;5.416;2024-02-15T13:59:07;3.58;;;0.30;;
76865;SDS011;66647;52.124;5.416;2024-02-15T14:01:53;4.18;;;0.30;;
76865;SDS011;66647;52.124;5.416;2024-02-15T14:04:19;4.85;;;1.10;;
76865;SDS011;66647;52.124;5.416;2024-02-15T14:06:47;6.40;;;0.88;;
76865;SDS011;66647;52.124;5.416;2024-02-15T14:09:15;4.47;;;1.05;;
76865;SDS011;66647;52.124;5.416;2024-02-15T14:12:11;4.35;;;0.30;;
76865;SDS011;66647;52.124;5.416;2024-02-15T14:15:01;4.22;;;1.27;;
76865;SDS011;66647;52.124;5.416;2024-02-15T14:18:17;4.78;;;1.08;;
76865;SDS011;66647;52.124;5.416;2024-02-15T14:20:46;4.25;;;0.50;;
76865;SDS011;66647;52.124;5.416;2024-02-15T14:23:19;4.47;;;1.40;;
76865;SDS011;66647;52.124;5.416;2024-02-15T14:25:45;2.28;;;0.32;;
76865;SDS011;66647;52.124;5.416;2024-02-15T14:28:15;4.20;;;1.73;;
76865;SDS011;66647;52.124;5.416;2024-02-15T14:30:42;6.28;;;1.55;;
76865;SDS011;66647;52.124;5.416;2024-02-15T14:33:28;6.68;;;1.98;;
76865;SDS011;66647;52.124;5.416;2024-02-15T14:35:57;6.90;;;1.67;;
76865;SDS011;66647;52.124;5.416;2024-02-15T14:38:28;6.38;;;0.77;;
76865;SDS011;66647;52.124;5.416;2024-02-15T14:44:16;4.95;;;1.23;;
76865;SDS011;66647;52.124;5.416;2024-02-15T14:46:51;5.53;;;1.58;;
76865;SDS011;66647;52.124;5.416;2024-02-15T14:49:35;5.63;;;1.63;;
76865;SDS011;66647;52.124;5.416;2024-02-15T14:52:09;4.90;;;0.50;;
76865;SDS011;66647;52.124;5.416;2024-02-15T14:54:35;9.27;;;1.85;;
76865;SDS011;66647;52.124;5.416;2024-02-15T14:57:34;6.32;;;0.43;;
76865;SDS011;66647;52.124;5.416;2024-02-15T15:00:17;5.55;;;2.75;;
76865;SDS011;66647;52.124;5.416;2024-02-15T15:02:47;7.35;;;0.47;;
76865;SDS011;66647;52.124;5.416;2024-02-15T15:08:46;2.65;;;1.00;;
76865;SDS011;66647;52.124;5.416;2024-02-15T15:18:04;4.90;;;1.42;;
76865;SDS011;66647;52.124;5.416;2024-02-15T15:20:31;5.78;;;1.08;;
76865;SDS011;66647;52.124;5.416;2024-02-15T15:22:59;5.35;;;1.25;;
76865;SDS011;66647;52.124;5.416;2024-02-15T15:25:34;8.60;;;1.55;;
76865;SDS011;66647;52.124;5.416;2024-02-15T15:36:43;4.57;;;1.38;;
76865;SDS011;66647;52.124;5.416;2024-02-15T15:42:39;3.83;;;1.88;;
76865;SDS011;66647;52.124;5.416;2024-02-15T15:53:14;6.88;;;2.10;;
76865;SDS011;66647;52.124;5.416;2024-02-15T16:06:59;5.35;;;0.70;;
76865;SDS011;66647;52.124;5.416;2024-02-15T16:09:26;5.32;;;0.85;;
76865;SDS011;66647;52.124;5.416;2024-02-15T16:20:12;5.05;;;2.05;;
76865;SDS011;66647;52.124;5.416;2024-02-15T16:25:14;6.18;;;1.60;;
76865;SDS011;66647;52.124;5.416;2024-02-15T16:27:47;7.03;;;2.38;;
76865;SDS011;66647;52.124;5.416;2024-02-15T16:30:27;7.75;;;1.20;;
76865;SDS011;66647;52.124;5.416;2024-02-15T16:33:21;9.50;;;1.73;;
76865;SDS011;66647;52.124;5.416;2024-02-15T17:13:27;7.63;;;3.10;;
76865;SDS011;66647;52.124;5.416;2024-02-15T17:16:15;8.00;;;1.92;;
76865;SDS011;66647;52.124;5.416;2024-02-15T17:18:45;8.27;;;1.58;;
76865;SDS011;66647;52.124;5.416;2024-02-15T17:21:15;5.38;;;1.42;;
76865;SDS011;66647;52.124;5.416;2024-02-15T17:23:42;6.60;;;2.67;;
76865;SDS011;66647;52.124;5.416;2024-02-15T17:26:16;6.50;;;3.25;;
76865;SDS011;66647;52.124;5.416;2024-02-15T17:28:42;7.57;;;3.00;;
76865;SDS011;66647;52.124;5.416;2024-02-15T17:31:16;6.15;;;2.17;;
76865;SDS011;66647;52.124;5.416;2024-02-15T17:36:40;6.95;;;1.05;;
76865;SDS011;66647;52.124;5.416;2024-02-15T17:45:03;4.63;;;1.05;;
76865;SDS011;66647;52.124;5.416;2024-02-15T17:56:14;4.60;;;1.50;;
76865;SDS011;66647;52.124;5.416;2024-02-15T17:58:47;8.20;;;2.58;;
76865;SDS011;66647;52.124;5.416;2024-02-15T18:01:14;11.48;;;2.45;;
76865;SDS011;66647;52.124;5.416;2024-02-15T18:03:41;7.47;;;1.85;;
76865;SDS011;66647;52.124;5.416;2024-02-15T18:06:08;6.93;;;1.45;;
76865;SDS011;66647;52.124;5.416;2024-02-15T18:08:38;4.63;;;1.25;;
76865;SDS011;66647;52.124;5.416;2024-02-15T18:11:06;5.65;;;2.00;;
76865;SDS011;66647;52.124;5.416;2024-02-15T18:13:38;3.53;;;1.58;;
76865;SDS011;66647;52.124;5.416;2024-02-15T18:16:11;8.10;;;0.90;;
76865;SDS011;66647;52.124;5.416;2024-02-15T18:18:39;5.97;;;0.75;;
76865;SDS011;66647;52.124;5.416;2024-02-15T18:21:06;3.33;;;1.17;;
76865;SDS011;66647;52.124;5.416;2024-02-15T18:23:39;12.40;;;1.85;;
76865;SDS011;66647;52.124;5.416;2024-02-15T18:26:11;10.88;;;1.13;;
76865;SDS011;66647;52.124;5.416;2024-02-15T18:28:40;8.93;;;1.42;;
76865;SDS011;66647;52.124;5.416;2024-02-15T18:32:44;5.13;;;1.23;;
76865;SDS011;66647;52.124;5.416;2024-02-15T18:35:19;3.83;;;1.98;;